Time;durP1;ratioP1;P1;durP2;ratioP2;P2;SDS_P1;SDS_P2;PMS_P1;PMS_P2;Temp;Humidity;BMP_temperature;BMP_pressure;BME280_temperature;BME280_humidity;BME280_pressure;Samples;Min_cycle;Max_cycle;Signal;HPM_P1;HPM_P2
2022/08/18 00:01:18;;;;;;;8.20;3.97;;;;;;;29.07;37.39;97609.47;4425470;32;20173;-80
2022/08/18 00:03:45;;;;;;;9.45;4.50;;;;;;;29.01;37.52;97602.25;4425342;32;20097;-79
2022/08/18 00:06:28;;;;;;;8.70;3.90;;;;;;;29.13;37.52;97602.53;4425112;32;20120;-80
2022/08/18 00:08:57;;;;;;;8.63;4.18;;;;;;;29.23;37.30;97603.03;4425489;32;20108;-79
2022/08/18 00:11:24;;;;;;;8.95;4.20;;;;;;;29.10;37.43;97603.75;4411672;32;20161;-79
2022/08/18 00:13:51;;;;;;;9.50;3.80;;;;;;;28.53;39.12;97607.34;4424902;32;20168;-80
2022/08/18 00:16:18;;;;;;;7.93;3.65;;;;;;;27.78;41.15;97609.53;4425388;32;20158;-79
2022/08/18 00:18:45;;;;;;;8.95;3.97;;;;;;;28.29;40.30;97615.69;4425190;32;20102;-79
2022/08/18 00:21:12;;;;;;;9.10;4.20;;;;;;;28.59;39.58;97613.72;4424877;32;20102;-80
2022/08/18 00:23:39;;;;;;;10.18;4.30;;;;;;;28.51;39.56;97605.91;4425286;32;20163;-79
2022/08/18 00:26:06;;;;;;;9.93;4.50;;;;;;;28.42;39.44;97596.41;4424980;32;20435;-80
2022/08/18 00:28:33;;;;;;;10.63;4.35;;;;;;;28.76;38.41;97595.69;4425064;32;20105;-80
2022/08/18 00:31:00;;;;;;;9.25;3.83;;;;;;;28.90;38.06;97600.13;4425258;32;20173;-80
2022/08/18 00:33:27;;;;;;;9.38;4.05;;;;;;;28.50;38.75;97597.12;4424801;32;20107;-80
2022/08/18 00:35:55;;;;;;;10.02;4.00;;;;;;;27.95;39.94;97584.44;4425144;32;20169;-79
2022/08/18 00:38:22;;;;;;;10.18;4.05;;;;;;;28.28;39.22;97586.66;4424898;32;20102;-79
2022/08/18 00:40:52;;;;;;;9.52;4.55;;;;;;;28.61;38.70;97584.34;4424803;32;20102;-80
2022/08/18 00:43:47;;;;;;;7.37;3.80;;;;;;;28.73;38.45;97586.28;4424654;32;20495;-79
2022/08/18 00:46:20;;;;;;;9.82;3.95;;;;;;;28.59;38.66;97589.81;4417694;32;20483;-79
2022/08/18 00:48:48;;;;;;;9.57;4.05;;;;;;;28.35;39.10;97598.16;4424522;32;20163;-80
2022/08/18 00:51:28;;;;;;;10.73;4.43;;;;;;;28.51;38.71;97601.41;4411741;32;20105;-80
2022/08/18 00:54:01;;;;;;;9.68;4.47;;;;;;;28.68;38.30;97601.13;4424903;32;20093;-79
2022/08/18 00:56:35;;;;;;;11.25;4.32;;;;;;;28.32;39.19;97598.56;4424857;32;20725;-80
2022/08/18 00:59:06;;;;;;;9.27;4.22;;;;;;;27.95;40.02;97593.22;4411284;32;20166;-80
2022/08/18 01:01:34;;;;;;;9.13;4.10;;;;;;;27.98;39.83;97588.56;4410935;32;20165;-80
2022/08/18 01:04:05;;;;;;;8.57;4.10;;;;;;;28.08;39.73;97589.09;4424723;32;20413;-80
2022/08/18 01:06:38;;;;;;;10.60;3.97;;;;;;;28.38;39.20;97573.91;4411041;32;20090;-80
2022/08/18 01:09:07;;;;;;;9.32;4.25;;;;;;;28.65;38.82;97582.94;4410705;32;20120;-80
2022/08/18 01:11:37;;;;;;;8.43;3.97;;;;;;;28.27;39.52;97582.34;4411192;32;20157;-80
2022/08/18 01:14:05;;;;;;;9.73;4.35;;;;;;;27.81;40.26;97595.91;4424604;32;20179;-80
2022/08/18 01:22:18;;;;;;;9.50;4.40;;;;;;;28.46;38.89;97595.00;4412477;32;20105;-80
2022/08/18 01:27:31;;;;;;;10.50;4.18;;;;;;;28.27;39.42;97601.72;4424471;32;20090;-80
2022/08/18 01:30:06;;;;;;;8.88;4.22;;;;;;;28.22;40.03;97622.69;4424209;32;20113;-80
2022/08/18 01:32:33;;;;;;;7.85;4.05;;;;;;;28.03;40.60;97620.63;4424651;32;20168;-79
2022/08/18 01:35:00;;;;;;;11.55;4.68;;;;;;;27.66;41.53;97622.44;4424270;32;20085;-79
2022/08/18 01:37:27;;;;;;;9.05;4.05;;;;;;;27.56;42.21;97617.38;4410382;32;20169;-80
2022/08/18 01:39:55;;;;;;;9.27;4.20;;;;;;;27.16;43.50;97608.03;4424424;32;20162;-79
2022/08/18 01:42:42;;;;;;;9.75;4.15;;;;;;;27.03;43.95;97611.31;4424313;32;20102;-79
2022/08/18 01:45:10;;;;;;;8.50;4.18;;;;;;;27.00;43.72;97614.25;4423815;32;20121;-80
2022/08/18 01:47:39;;;;;;;9.55;4.20;;;;;;;27.24;43.58;97610.59;4410428;32;20380;-80
2022/08/18 01:50:23;;;;;;;8.10;4.10;;;;;;;26.94;44.37;97609.69;4424053;32;20112;-79
2022/08/18 01:52:52;;;;;;;8.52;4.00;;;;;;;27.44;42.70;97608.25;4424271;32;20146;-79
2022/08/18 01:55:19;;;;;;;9.02;3.72;;;;;;;27.06;42.44;97607.47;4425706;32;20093;-79
2022/08/18 01:57:46;;;;;;;10.20;4.20;;;;;;;26.88;42.95;97614.87;4425963;32;20085;-80
2022/08/18 02:00:16;;;;;;;8.98;4.25;;;;;;;27.03;42.69;97607.84;4426238;32;20512;-79
2022/08/18 02:02:43;;;;;;;8.75;4.03;;;;;;;26.96;42.73;97609.50;4412454;32;20463;-79
2022/08/18 02:05:13;;;;;;;11.43;4.10;;;;;;;27.31;41.80;97608.84;4425737;32;20109;-80
2022/08/18 02:07:40;;;;;;;9.82;4.50;;;;;;;27.17;41.92;97614.97;4412273;32;20102;-79
2022/08/18 02:10:10;;;;;;;8.77;3.67;;;;;;;26.97;42.46;97601.38;4426283;32;20098;-79
2022/08/18 02:12:42;;;;;;;9.40;4.05;;;;;;;27.37;41.67;97599.38;4425934;32;20093;-80
2022/08/18 02:15:10;;;;;;;9.65;3.97;;;;;;;28.01;40.31;97593.50;4425980;32;20165;-80
2022/08/18 02:17:38;;;;;;;11.27;4.32;;;;;;;27.58;41.25;97593.34;4426169;32;20121;-79
2022/08/18 02:20:07;;;;;;;9.43;4.25;;;;;;;28.10;40.20;97581.75;4425596;32;20113;-80
2022/08/18 02:22:34;;;;;;;9.10;4.00;;;;;;;27.79;40.79;97592.63;4425929;32;20358;-79
2022/08/18 02:25:01;;;;;;;7.50;3.80;;;;;;;27.23;41.87;97579.00;4425943;32;20098;-79
2022/08/18 02:27:28;;;;;;;9.18;4.20;;;;;;;27.54;41.57;97586.75;4425627;32;20104;-80
2022/08/18 02:29:58;;;;;;;10.52;4.93;;;;;;;27.47;41.44;97585.84;4426088;32;20440;-80
2022/08/18 02:32:26;;;;;;;9.10;4.30;;;;;;;27.36;41.64;97587.94;4425769;32;20093;-80
2022/08/18 02:34:55;;;;;;;8.88;3.87;;;;;;;27.49;41.31;97589.12;4425861;32;20107;-80
2022/08/18 02:37:22;;;;;;;8.90;3.92;;;;;;;27.31;41.67;97586.84;4425955;32;20588;-80
2022/08/18 02:39:49;;;;;;;8.93;4.00;;;;;;;28.62;39.16;97583.34;4425705;32;20102;-80
2022/08/18 02:42:16;;;;;;;9.77;3.95;;;;;;;28.84;38.54;97590.25;4426058;32;20407;-80
2022/08/18 02:44:43;;;;;;;9.30;4.22;;;;;;;28.31;39.59;97589.78;4425763;32;20098;-80
2022/08/18 02:47:10;;;;;;;8.80;4.20;;;;;;;28.37;39.48;97588.19;4425537;32;20081;-80
2022/08/18 02:49:37;;;;;;;8.30;4.10;;;;;;;27.96;40.39;97597.50;4425861;32;20149;-79
2022/08/18 02:52:04;;;;;;;10.82;4.18;;;;;;;28.10;40.44;97598.50;4425985;32;20147;-79
2022/08/18 02:54:32;;;;;;;8.73;3.95;;;;;;;28.62;39.22;97592.13;4425531;32;20153;-80
2022/08/18 02:56:59;;;;;;;9.38;4.57;;;;;;;28.04;40.56;97601.06;4425786;32;20077;-79
2022/08/18 02:59:26;;;;;;;8.65;4.12;;;;;;;27.73;41.06;97598.66;4425971;32;20153;-79
2022/08/18 03:01:57;;;;;;;9.35;4.87;;;;;;;27.79;41.08;97592.63;4425567;32;20428;-80
2022/08/18 03:04:27;;;;;;;9.00;4.43;;;;;;;27.33;42.17;97587.50;4425481;32;20177;-79
2022/08/18 03:06:58;;;;;;;11.10;4.57;;;;;;;27.59;41.78;97592.34;4425793;32;20207;-79
2022/08/18 03:09:25;;;;;;;8.93;4.22;;;;;;;27.21;42.70;97586.28;4425335;32;20097;-80
2022/08/18 03:11:53;;;;;;;11.57;4.30;;;;;;;26.28;45.04;97576.78;4425764;32;20108;-80
2022/08/18 03:14:20;;;;;;;9.15;4.32;;;;;;;26.44;45.04;97581.16;4425624;32;20085;-80
2022/08/18 03:16:47;;;;;;;12.02;4.85;;;;;;;26.78;44.08;97581.53;4425716;32;20150;-80
2022/08/18 03:19:21;;;;;;;9.10;4.37;;;;;;;26.89;43.92;97579.47;4425698;32;20113;-80
2022/08/18 03:21:49;;;;;;;11.63;4.65;;;;;;;26.04;45.87;97584.84;4425241;32;20116;-80
2022/08/18 03:24:17;;;;;;;9.88;4.32;;;;;;;26.15;45.90;97579.16;4425598;32;20184;-80
2022/08/18 03:26:51;;;;;;;10.13;4.20;;;;;;;26.16;46.00;97576.38;4425538;32;20733;-79
2022/08/18 03:29:18;;;;;;;9.88;4.50;;;;;;;26.31;45.91;97573.78;4425177;32;20161;-80
2022/08/18 03:31:47;;;;;;;9.57;4.57;;;;;;;26.67;45.07;97563.44;4425729;32;20149;-79
2022/08/18 03:34:18;;;;;;;9.73;4.53;;;;;;;26.45;45.57;97566.94;4425435;32;20093;-79
2022/08/18 03:36:46;;;;;;;11.35;4.62;;;;;;;26.48;45.53;97561.31;4425408;32;20539;-80
2022/08/18 03:39:13;;;;;;;9.23;4.50;;;;;;;27.70;42.64;97570.69;4425477;32;20100;-80
2022/08/18 03:41:43;;;;;;;13.10;4.80;;;;;;;28.40;40.36;97563.94;4425553;32;20161;-80
2022/08/18 03:44:30;;;;;;;13.27;4.47;;;;;;;27.98;41.11;97568.19;4425505;32;20120;-79
2022/08/18 03:46:57;;;;;;;10.73;4.50;;;;;;;27.58;41.91;97570.31;4411394;32;20073;-80
2022/08/18 03:49:25;;;;;;;9.40;4.43;;;;;;;28.04;40.85;97570.06;4425367;32;20154;-78
2022/08/18 03:51:53;;;;;;;10.40;4.30;;;;;;;27.14;42.77;97566.84;4425533;32;20403;-78
2022/08/18 03:54:22;;;;;;;9.50;4.43;;;;;;;27.01;43.26;97573.56;4425353;32;20153;-78
2022/08/18 03:56:49;;;;;;;11.27;4.90;;;;;;;27.42;42.74;97582.91;4425067;32;20157;-78
2022/08/18 03:59:20;;;;;;;12.63;4.85;;;;;;;26.34;44.77;97580.53;4425408;32;20141;-78
2022/08/18 04:01:48;;;;;;;10.48;4.22;;;;;;;26.25;45.72;97574.47;4425617;32;20132;-78
2022/08/18 04:04:18;;;;;;;13.10;4.75;;;;;;;27.21;43.14;97570.41;4424987;32;20158;-79
2022/08/18 04:06:49;;;;;;;10.27;4.50;;;;;;;26.54;44.64;97579.09;4425272;32;20174;-79
2022/08/18 04:09:17;;;;;;;14.07;4.55;;;;;;;27.01;43.79;97580.66;4425491;32;20093;-79
2022/08/18 04:11:44;;;;;;;11.57;5.53;;;;;;;25.66;46.59;97582.88;4425077;32;20169;-79
2022/08/18 04:14:14;;;;;;;11.98;5.00;;;;;;;25.37;47.69;97580.81;4425296;32;20487;-79
2022/08/18 04:16:41;;;;;;;11.63;4.85;;;;;;;26.51;44.86;97585.56;4410704;32;20169;-79
2022/08/18 04:19:12;;;;;;;13.18;4.62;;;;;;;26.98;43.66;97591.63;4424994;32;20105;-79
2022/08/18 04:21:41;;;;;;;9.45;4.12;;;;;;;26.99;42.95;97598.56;4425167;32;20440;-79
2022/08/18 04:24:10;;;;;;;9.85;4.40;;;;;;;28.34;40.03;97612.44;4411420;32;20284;-79
2022/08/18 04:26:42;;;;;;;10.45;4.35;;;;;;;28.33;40.32;97619.59;4424886;32;20115;-79
2022/08/18 04:29:11;;;;;;;12.63;4.50;;;;;;;27.51;41.64;97616.25;4425142;32;20124;-79
2022/08/18 04:31:38;;;;;;;9.73;4.50;;;;;;;27.46;42.60;97616.00;4424953;32;20089;-79
2022/08/18 04:34:06;;;;;;;9.93;4.50;;;;;;;28.23;40.51;97627.00;4425197;32;20172;-79
2022/08/18 04:36:34;;;;;;;11.15;4.40;;;;;;;27.25;42.54;97624.66;4425057;32;20096;-79
2022/08/18 04:39:03;;;;;;;10.85;4.50;;;;;;;28.87;39.30;97637.66;4424794;32;20150;-79
2022/08/18 04:41:30;;;;;;;10.27;4.75;;;;;;;29.49;37.68;97646.78;4425108;32;20105;-79
2022/08/18 04:44:00;;;;;;;10.85;4.65;;;;;;;28.98;38.77;97644.31;4425077;32;20108;-79
2022/08/18 04:46:28;;;;;;;9.70;5.05;;;;;;;28.38;39.88;97638.41;4424710;32;20156;-79
2022/08/18 04:48:57;;;;;;;10.60;4.75;;;;;;;28.67;39.62;97642.78;4424831;32;20089;-79
2022/08/18 04:51:28;;;;;;;10.90;4.62;;;;;;;28.14;40.71;97641.38;4425094;32;20116;-79
2022/08/18 04:54:15;;;;;;;11.85;5.35;;;;;;;28.32;40.69;97655.09;4424458;32;20151;-79
2022/08/18 04:56:42;;;;;;;12.52;4.90;;;;;;;27.70;42.23;97644.09;4424897;32;20078;-79
2022/08/18 04:59:13;;;;;;;12.68;5.30;;;;;;;29.04;39.53;97649.69;4424941;32;20098;-79
2022/08/18 05:01:44;;;;;;;9.23;4.45;;;;;;;29.23;39.52;97655.34;4424632;32;20499;-79
2022/08/18 05:04:13;;;;;;;14.15;4.85;;;;;;;30.31;37.61;97657.44;4424964;32;20109;-79
2022/08/18 05:06:42;;;;;;;9.07;4.62;;;;;;;31.14;35.67;97649.16;4424398;32;20102;-79
2022/08/18 05:09:11;;;;;;;11.80;4.87;;;;;;;31.93;34.40;97654.41;4424735;32;20507;-79
2022/08/18 05:11:43;;;;;;;9.77;4.80;;;;;;;32.56;33.38;97648.41;4424908;32;20196;-79
2022/08/18 05:14:10;;;;;;;8.63;4.20;;;;;;;33.13;32.14;97650.03;4424317;32;20155;-79
2022/08/18 05:16:38;;;;;;;10.98;4.87;;;;;;;33.26;31.79;97649.94;4424654;32;20077;-79
2022/08/18 05:19:18;;;;;;;10.25;4.50;;;;;;;34.02;31.07;97651.44;4424768;32;20574;-79
2022/08/18 05:21:52;;;;;;;11.93;4.78;;;;;;;34.45;30.35;97654.03;4424300;32;20101;-79
2022/08/18 05:24:26;;;;;;;22.10;6.47;;;;;;;35.45;29.30;97639.09;4424648;32;20148;-79
2022/08/18 05:27:02;;;;;;;11.38;4.65;;;;;;;36.19;28.34;97640.94;4424474;32;20444;-79
2022/08/18 05:29:35;;;;;;;10.65;4.45;;;;;;;36.58;28.33;97645.69;4425023;32;20081;-79
2022/08/18 05:32:12;;;;;;;10.75;4.62;;;;;;;34.41;30.86;97634.09;4426469;32;20151;-79
2022/08/18 05:35:14;;;;;;;14.60;4.15;;;;;;;33.61;31.67;97639.56;4425881;32;20093;-79
2022/08/18 05:37:53;;;;;;;8.98;4.12;;;;;;;35.15;28.87;97644.53;4412604;32;20078;-79
2022/08/18 05:40:23;;;;;;;7.32;4.10;;;;;;;35.87;28.15;97648.63;4426577;32;20125;-79
2022/08/18 05:42:50;;;;;;;10.60;4.37;;;;;;;37.02;27.15;97644.06;4426059;32;20504;-79
2022/08/18 05:45:18;;;;;;;10.40;4.50;;;;;;;36.36;28.91;97649.06;4426184;32;20098;-79
2022/08/18 05:47:45;;;;;;;13.95;4.05;;;;;;;36.15;28.47;97649.69;4412491;32;20133;-79
2022/08/18 05:50:17;;;;;;;11.20;4.55;;;;;;;34.68;31.33;97644.44;4425954;32;20106;-79
2022/08/18 05:52:57;;;;;;;11.27;4.72;;;;;;;33.96;32.08;97638.16;4409564;32;20139;-79
2022/08/18 05:58:47;;;;;;;11.27;4.72;;;;;;;32.05;34.95;97638.56;4413749;32;20090;-79
2022/08/18 06:01:26;;;;;;;10.38;4.72;;;;;;;31.89;35.51;97640.66;4410361;32;20157;-79
2022/08/18 06:04:01;;;;;;;10.13;4.62;;;;;;;31.70;35.61;97643.38;4424339;32;20120;-79
2022/08/18 06:06:29;;;;;;;15.82;4.70;;;;;;;31.41;36.63;97647.34;4411093;32;20181;-79
2022/08/18 06:09:17;;;;;;;8.77;4.20;;;;;;;30.63;37.92;97652.38;4425476;32;20159;-79
2022/08/18 06:11:46;;;;;;;11.27;4.85;;;;;;;30.51;38.23;97639.66;4424787;32;20112;-80
2022/08/18 06:14:13;;;;;;;10.98;4.50;;;;;;;31.86;35.79;97635.75;4410612;32;20194;-80
2022/08/18 06:17:02;;;;;;;12.27;5.00;;;;;;;32.56;34.97;97635.84;4411065;32;20141;-80
2022/08/18 06:19:48;;;;;;;9.90;4.70;;;;;;;32.31;34.16;97633.13;4424570;32;20169;-79
2022/08/18 06:22:40;;;;;;;11.50;4.60;;;;;;;31.33;35.73;97630.50;4424255;32;20106;-79
2022/08/18 06:25:26;;;;;;;11.57;4.82;;;;;;;31.12;36.53;97630.72;4423917;32;20093;-79
2022/08/18 06:28:06;;;;;;;12.65;5.03;;;;;;;31.85;35.12;97636.78;4411276;32;20151;-80
2022/08/18 06:30:33;;;;;;;12.93;5.70;;;;;;;32.11;34.67;97635.84;4411366;32;20120;-80
2022/08/18 06:33:32;;;;;;;13.57;5.22;;;;;;;32.57;33.80;97640.16;4424482;32;20173;-80
2022/08/18 06:36:13;;;;;;;11.15;5.00;;;;;;;32.76;33.53;97636.53;4380886;32;20131;-80
2022/08/18 06:39:15;;;;;;;12.88;5.30;;;;;;;32.21;34.41;97630.06;4424693;32;20136;-79
2022/08/18 06:41:47;;;;;;;10.10;5.35;;;;;;;31.24;35.94;97639.75;4425072;32;20111;-79
2022/08/18 06:44:56;;;;;;;13.18;5.43;;;;;;;30.93;36.78;97635.00;4424416;32;20166;-79
2022/08/18 06:47:39;;;;;;;10.30;5.43;;;;;;;31.61;35.48;97643.59;4382316;32;20105;-79
2022/08/18 06:50:12;;;;;;;11.95;5.93;;;;;;;31.59;35.90;97661.66;4423725;32;20480;-80
2022/08/18 06:52:52;;;;;;;10.82;5.53;;;;;;;31.26;36.31;97659.03;4410564;32;20165;-80
2022/08/18 06:55:37;;;;;;;12.35;5.53;;;;;;;31.89;35.18;97671.84;4425179;32;20094;-79
2022/08/18 06:58:21;;;;;;;14.18;5.32;;;;;;;31.84;35.57;97677.00;4424533;32;20162;-80
2022/08/18 07:00:51;;;;;;;12.48;5.60;;;;;;;32.86;34.07;97681.50;4424885;32;20146;-80
2022/08/18 07:03:43;;;;;;;10.50;5.22;;;;;;;33.07;33.24;97675.81;4424291;32;20086;-79
2022/08/18 07:06:22;;;;;;;16.17;5.85;;;;;;;33.02;33.22;97670.28;4411206;32;20154;-79
2022/08/18 07:08:52;;;;;;;12.30;6.25;;;;;;;34.26;31.85;97673.00;4424874;32;20108;-79
2022/08/18 07:11:23;;;;;;;11.23;5.12;;;;;;;34.72;31.30;97675.87;4425119;32;20107;-79
2022/08/18 07:13:55;;;;;;;16.50;6.35;;;;;;;33.12;32.92;97675.16;4424084;32;20129;-80
2022/08/18 07:16:41;;;;;;;14.95;6.15;;;;;;;34.01;32.29;97675.75;4424664;32;20114;-79
2022/08/18 07:19:29;;;;;;;12.25;6.50;;;;;;;32.14;35.05;97666.66;4425046;32;20094;-80
2022/08/18 07:22:07;;;;;;;14.90;6.62;;;;;;;33.25;33.91;97669.69;4424373;32;20353;-80
2022/08/18 07:24:46;;;;;;;16.02;6.50;;;;;;;32.79;34.97;97678.84;4424313;32;20082;-80
2022/08/18 07:27:17;;;;;;;11.18;6.28;;;;;;;33.12;34.57;97668.97;4423739;32;20094;-80
2022/08/18 07:30:09;;;;;;;12.80;6.35;;;;;;;33.08;34.42;97679.31;4424952;32;20161;-80
2022/08/18 07:32:52;;;;;;;12.40;6.53;;;;;;;32.42;35.75;97677.81;4424340;32;20102;-80
2022/08/18 07:35:44;;;;;;;13.55;6.62;;;;;;;31.44;37.27;97652.25;4410812;32;20160;-80
2022/08/18 07:38:21;;;;;;;16.87;6.80;;;;;;;30.29;39.34;97651.47;4424229;32;20154;-80
2022/08/18 07:41:16;;;;;;;14.10;6.17;;;;;;;30.77;38.78;97648.75;4413286;32;20148;-80
2022/08/18 07:43:50;;;;;;;13.77;5.97;;;;;;;31.94;36.24;97656.06;4424176;32;20441;-80
2022/08/18 07:46:22;;;;;;;15.10;6.03;;;;;;;32.42;35.20;97660.97;4424931;32;20085;-79
2022/08/18 07:48:49;;;;;;;11.25;5.50;;;;;;;31.93;35.91;97657.91;4410262;32;20107;-79
2022/08/18 07:51:22;;;;;;;13.95;5.55;;;;;;;32.01;36.01;97658.66;4423927;32;20085;-79
2022/08/18 07:54:03;;;;;;;12.27;5.80;;;;;;;33.76;32.86;97671.28;4424084;32;20488;-79
2022/08/18 07:56:46;;;;;;;12.93;5.32;;;;;;;34.52;31.39;97664.62;4424224;32;20125;-79
2022/08/18 07:59:47;;;;;;;9.85;4.20;;;;;;;32.73;33.95;97669.00;4410331;32;20124;-79
2022/08/18 08:02:18;;;;;;;15.63;4.62;;;;;;;34.19;31.72;97670.41;4410203;32;20109;-80
2022/08/18 08:05:00;;;;;;;9.50;4.47;;;;;;;35.40;29.62;97663.91;4398284;32;20361;-80
2022/08/18 08:07:57;;;;;;;10.55;4.50;;;;;;;35.89;29.95;97662.63;4424765;32;20081;-80
2022/08/18 08:10:31;;;;;;;9.90;4.32;;;;;;;35.47;29.84;97669.16;4410274;32;20128;-80
2022/08/18 08:13:07;;;;;;;9.40;4.10;;;;;;;36.15;28.78;97673.88;4424174;32;20089;-80
2022/08/18 08:15:42;;;;;;;10.32;4.60;;;;;;;36.20;28.89;97682.84;4411058;32;20525;-80
2022/08/18 08:18:18;;;;;;;10.25;4.00;;;;;;;36.25;28.70;97684.81;4424186;32;20107;-80
2022/08/18 08:20:53;;;;;;;8.77;4.03;;;;;;;36.76;27.44;97683.94;4424074;32;20338;-80
2022/08/18 08:23:58;;;;;;;12.55;4.53;;;;;;;36.55;27.74;97678.44;4423648;32;20114;-80
2022/08/18 08:26:47;;;;;;;11.65;5.30;;;;;;;34.91;30.85;97690.06;4358792;32;20532;-80
2022/08/18 08:29:35;;;;;;;8.68;4.10;;;;;;;36.35;28.48;97676.97;4409044;32;20163;-80
2022/08/18 08:32:07;;;;;;;8.45;3.87;;;;;;;36.56;28.10;97672.81;4408917;32;20154;-80
2022/08/18 08:34:39;;;;;;;10.15;4.00;;;;;;;36.30;28.51;97676.06;4395387;32;20128;-80
2022/08/18 08:37:17;;;;;;;9.23;3.97;;;;;;;36.31;28.88;97672.31;4409020;32;20098;-79
2022/08/18 08:39:54;;;;;;;12.48;4.45;;;;;;;36.13;29.13;97649.12;4395063;32;20169;-80
2022/08/18 08:43:07;;;;;;;8.75;4.07;;;;;;;35.57;29.99;97646.06;4395308;32;20120;-80
2022/08/18 08:45:38;;;;;;;9.68;3.90;;;;;;;35.48;30.27;97647.47;4405186;32;20151;-80
2022/08/18 08:48:27;;;;;;;11.23;4.12;;;;;;;36.15;29.01;97653.19;4383142;32;20091;-79
2022/08/18 08:51:08;;;;;;;10.13;4.53;;;;;;;36.72;28.51;97668.53;4408801;32;20145;-79
2022/08/18 08:53:46;;;;;;;9.98;4.28;;;;;;;37.65;27.31;97667.13;4394913;32;20106;-80
2022/08/18 08:56:15;;;;;;;10.38;4.15;;;;;;;38.00;26.84;97672.16;4409085;32;20112;-79
2022/08/18 08:58:51;;;;;;;11.20;4.18;;;;;;;37.24;27.45;97658.41;4395195;32;20527;-80
2022/08/18 09:01:46;;;;;;;10.65;4.20;;;;;;;38.33;26.33;97665.03;4408805;32;20093;-80
2022/08/18 09:04:19;;;;;;;13.43;4.40;;;;;;;38.07;26.37;97656.66;4408016;32;20102;-79
2022/08/18 09:06:52;;;;;;;8.07;3.92;;;;;;;36.99;28.29;97653.44;4408894;32;20133;-80
2022/08/18 09:09:41;;;;;;;11.70;4.32;;;;;;;36.57;27.89;97642.19;4409144;32;20086;-80
2022/08/18 09:12:35;;;;;;;8.77;3.97;;;;;;;36.82;28.45;97649.94;4408229;32;20382;-80
2022/08/18 09:15:18;;;;;;;9.20;4.35;;;;;;;37.74;26.75;97640.56;4408609;32;20116;-81
2022/08/18 09:17:49;;;;;;;7.15;3.67;;;;;;;38.04;26.46;97651.75;4408711;32;20116;-81
2022/08/18 09:20:35;;;;;;;7.82;4.03;;;;;;;38.01;26.45;97648.75;4408457;32;20094;-81
2022/08/18 09:23:17;;;;;;;8.52;4.10;;;;;;;38.31;26.30;97641.03;4407568;32;20169;-81
2022/08/18 09:25:48;;;;;;;9.02;4.10;;;;;;;37.83;26.67;97642.59;4400012;32;20102;-81
2022/08/18 09:28:18;;;;;;;8.13;4.07;;;;;;;39.72;24.20;97642.50;4409994;32;20109;-81
2022/08/18 09:31:01;;;;;;;9.77;4.22;;;;;;;39.71;24.07;97645.47;4410266;32;20104;-81
2022/08/18 09:33:42;;;;;;;11.02;4.43;;;;;;;38.77;25.09;97639.63;4422864;32;20154;-81
2022/08/18 09:36:53;;;;;;;12.68;4.32;;;;;;;37.60;26.40;97640.94;4424176;32;20141;-81
2022/08/18 09:42:53;;;;;;;10.98;4.70;;;;;;;38.64;26.27;97636.50;4410294;32;20207;-81
2022/08/18 09:45:30;;;;;;;10.48;4.40;;;;;;;38.18;26.25;97642.22;4410006;32;20094;-79
2022/08/18 09:48:29;;;;;;;12.68;4.37;;;;;;;37.30;27.61;97643.19;4423233;32;20097;-81
2022/08/18 09:51:14;;;;;;;10.32;4.50;;;;;;;37.50;27.32;97643.47;4423817;32;20451;-80
2022/08/18 09:53:46;;;;;;;9.18;4.40;;;;;;;37.18;27.84;97627.09;4422554;32;20406;-81
2022/08/18 09:56:15;;;;;;;11.25;4.28;;;;;;;37.27;27.69;97622.94;4423277;32;20169;-81
2022/08/18 09:58:59;;;;;;;9.02;4.30;;;;;;;37.01;28.23;97620.94;4410225;32;20445;-81
2022/08/18 10:01:29;;;;;;;13.20;4.78;;;;;;;37.76;26.86;97619.62;4422920;32;20145;-79
2022/08/18 10:04:14;;;;;;;10.35;4.50;;;;;;;37.60;27.16;97615.87;4422011;32;20253;-79
2022/08/18 10:06:53;;;;;;;9.25;4.22;;;;;;;37.00;27.63;97619.28;4423198;32;20127;-81
2022/08/18 10:09:28;;;;;;;9.30;4.20;;;;;;;37.68;26.83;97610.09;4410115;32;20102;-81
2022/08/18 10:12:40;;;;;;;7.50;3.50;;;;;;;36.83;27.93;97600.47;4422909;32;20090;-80
2022/08/18 10:15:22;;;;;;;10.05;4.20;;;;;;;36.69;27.75;97596.47;4424017;32;20482;-80
2022/08/18 10:18:43;;;;;;;12.27;4.30;;;;;;;38.22;26.91;97594.06;4425502;32;20085;-80
2022/08/18 10:21:17;;;;;;;9.55;4.25;;;;;;;38.32;26.00;97586.09;4417037;32;20117;-80
2022/08/18 10:23:50;;;;;;;11.55;4.47;;;;;;;37.60;26.95;97580.91;4423892;32;20132;-80
2022/08/18 10:26:37;;;;;;;10.80;4.00;;;;;;;37.52;26.89;97582.12;4425330;32;20154;-80
2022/08/18 10:29:07;;;;;;;10.77;4.45;;;;;;;37.27;27.55;97574.53;4425405;32;20086;-81
2022/08/18 10:31:56;;;;;;;8.88;3.75;;;;;;;37.85;26.44;97573.16;4410927;32;20500;-80
2022/08/18 10:34:39;;;;;;;6.40;3.53;;;;;;;37.57;26.63;97576.03;4424287;32;20102;-80
2022/08/18 10:37:25;;;;;;;8.55;3.90;;;;;;;37.43;26.47;97554.03;4425070;32;20478;-80
2022/08/18 10:39:57;;;;;;;9.23;3.80;;;;;;;38.45;25.32;97582.97;4411691;32;20108;-81
2022/08/18 10:42:32;;;;;;;8.15;3.95;;;;;;;38.83;25.01;97578.47;4410908;32;20105;-79
2022/08/18 10:45:19;;;;;;;9.90;4.30;;;;;;;38.70;24.90;97587.78;4424176;32;20468;-80
2022/08/18 10:48:29;;;;;;;10.07;3.78;;;;;;;38.40;25.75;97584.81;4413793;32;20089;-80
2022/08/18 10:51:42;;;;;;;8.77;3.78;;;;;;;38.36;25.51;97581.81;4425057;32;20103;-80
2022/08/18 10:54:30;;;;;;;12.77;4.87;;;;;;;38.04;25.66;97579.03;4424491;32;20431;-80
2022/08/18 10:57:11;;;;;;;6.80;3.45;;;;;;;38.67;25.04;97569.44;4410986;32;20157;-80
2022/08/18 10:59:50;;;;;;;10.90;4.30;;;;;;;38.66;24.72;97561.59;4425022;32;20761;-80
2022/08/18 11:02:51;;;;;;;;;;;;;;;39.07;24.79;97570.81;4425026;32;20151;-79
2022/08/18 11:05:28;;;;;;;9.55;3.92;;;;;;;38.19;25.33;97556.84;4424415;32;20030;-80
2022/08/18 11:08:01;;;;;;;9.43;4.35;;;;;;;38.82;24.91;97559.88;4411719;32;20124;-80
2022/08/18 11:10:50;;;;;;;9.05;3.80;;;;;;;38.78;24.81;97557.66;4412749;32;20102;-80
2022/08/18 11:13:55;;;;;;;9.98;4.05;;;;;;;38.39;25.25;97559.75;4424362;32;20194;-80
2022/08/18 11:16:43;;;;;;;10.57;4.50;;;;;;;38.04;25.95;97559.34;4424882;32;20160;-80
2022/08/18 11:19:13;;;;;;;9.02;3.75;;;;;;;39.01;24.33;97553.78;4424979;32;20171;-80
2022/08/18 11:21:45;;;;;;;10.23;4.22;;;;;;;38.94;24.63;97555.09;4425430;32;20077;-80
2022/08/18 11:24:21;;;;;;;8.98;4.25;;;;;;;39.50;22.84;97550.03;4424338;32;20135;-80
2022/08/18 11:26:55;;;;;;;6.22;3.33;;;;;;;39.10;24.30;97546.00;4424044;32;20149;-80
2022/08/18 11:29:38;;;;;;;8.93;3.92;;;;;;;39.05;23.08;97549.50;4424998;32;20089;-80
2022/08/18 11:32:20;;;;;;;10.48;3.92;;;;;;;39.57;23.52;97550.62;4424347;32;20089;-80
2022/08/18 11:35:02;;;;;;;9.38;3.92;;;;;;;38.55;24.37;97535.62;4424514;32;20154;-78
2022/08/18 11:37:32;;;;;;;8.13;3.78;;;;;;;40.41;22.32;97536.81;4424931;32;20102;-78
2022/08/18 11:40:24;;;;;;;11.48;4.37;;;;;;;39.29;22.77;97535.62;4424938;32;20169;-78
2022/08/18 11:43:23;;;;;;;9.25;4.10;;;;;;;39.46;22.99;97538.16;4412756;32;20085;-77
2022/08/18 11:45:58;;;;;;;9.73;3.70;;;;;;;40.08;22.16;97530.00;4424605;32;20082;-78
2022/08/18 11:48:28;;;;;;;12.50;3.92;;;;;;;40.51;21.16;97530.59;4410943;32;20114;-78
2022/08/18 11:51:16;;;;;;;8.70;3.67;;;;;;;40.85;20.59;97530.91;4425031;32;20098;-78
2022/08/18 11:54:20;;;;;;;7.82;3.87;;;;;;;40.46;22.00;97536.84;4424122;32;20365;-79
2022/08/18 11:56:50;;;;;;;9.27;4.03;;;;;;;42.00;20.35;97532.66;4410401;32;20163;-78
2022/08/18 11:59:30;;;;;;;8.55;3.65;;;;;;;41.35;20.71;97545.41;4424964;32;20161;-80
2022/08/18 12:02:24;;;;;;;10.23;3.92;;;;;;;40.56;21.86;97551.44;4428289;32;20180;-78
2022/08/18 12:04:56;;;;;;;8.55;3.53;;;;;;;40.33;21.94;97555.47;4426259;32;20062;-78
2022/08/18 12:07:32;;;;;;;12.10;4.10;;;;;;;41.38;20.65;97561.13;4411916;32;20108;-77
2022/08/18 12:10:23;;;;;;;8.07;3.70;;;;;;;40.21;21.36;97563.00;4424571;32;20112;-78
2022/08/18 12:13:23;;;;;;;12.02;3.78;;;;;;;41.04;20.90;97556.28;4423801;32;20097;-78
2022/08/18 12:16:10;;;;;;;8.23;3.65;;;;;;;41.02;21.16;97549.53;4410611;32;20164;-78
2022/08/18 12:18:37;;;;;;;13.68;5.35;;;;;;;40.11;22.17;97551.09;4419900;32;147479;-78
2022/08/18 12:21:05;;;;;;;12.35;4.07;;;;;;;41.34;20.50;97549.19;4424751;32;20150;-80
2022/08/18 12:23:33;;;;;;;11.65;3.85;;;;;;;41.15;20.78;97548.13;4423750;32;20136;-79
2022/08/18 12:26:20;;;;;;;23.23;4.97;;;;;;;41.51;19.97;97554.28;4412719;32;20090;-76